LFSB/MLH METAR and TAF weather

Enter ICAO airport designator
Station Type Date Time Source
LFSB METAR 2023/02/05 23:00 UTC NOAA

LFSB 052300Z AUTO 36007KT 9999 OVC007 04/03 Q1036


Station Type Date Time Source
LFSB Decoded METAR 2023/02/05 23:00 UTC NOAA

Bale-Mulhouse, France (LFSB) 47-36N 007-31E 271M
Feb 05, 2023 - 06:00 PM EST / 2023.02.05 2300 UTC
Wind: from the N (360 degrees) at 8 MPH (7 KT):0
Visibility: greater than 7 mile(s):0
Sky conditions: overcast
Temperature: 39 F (4 C)
Dew Point: 37 F (3 C)
Relative Humidity: 93%
Pressure (altimeter): 30.59 in. Hg (1036 hPa)
ob: LFSB 052300Z AUTO 36007KT 9999 OVC007 04/03 Q1036
cycle: 23

Station Type Date Time Source
LFSB TAF 2023/02/05 18:21 UTC NOAA

TAF LFSB 051700Z 0518/0618 34008KT 9999 SCT030 SCT045
TEMPO 0518/0607 4000 -RA BR OVC003
TEMPO 0607/0611 BKN003

Example: see airport list